Time;durP1;ratioP1;P1;durP2;ratioP2;P2;SDS_P1;SDS_P2;PMS_P1;PMS_P2;Temp;Humidity;BMP_temperature;BMP_pressure;BME280_temperature;BME280_humidity;BME280_pressure;Samples;Min_cycle;Max_cycle;Signal;HPM_P1;HPM_P2
2022/01/21 00:01:33;;;;;;;12.95;2.75;;;2.40;99.90;;;;;;5087591;28;20036;-77
2022/01/21 00:03:59;;;;;;;17.58;2.40;;;2.30;99.90;;;;;;5087259;28;20174;-75
2022/01/21 00:06:25;;;;;;;13.57;3.40;;;2.20;99.90;;;;;;5069423;28;20047;-76
2022/01/21 00:08:51;;;;;;;19.10;2.47;;;2.20;99.90;;;;;;5087349;28;20043;-75
2022/01/21 00:11:18;;;;;;;15.00;3.47;;;2.20;99.90;;;;;;5086597;28;20044;-76
2022/01/21 00:13:44;;;;;;;16.65;3.38;;;2.00;99.90;;;;;;5087338;28;20157;-75
2022/01/21 00:16:14;;;;;;;8.02;2.10;;;1.90;99.90;;;;;;5087615;28;20501;-75
2022/01/21 00:18:52;;;;;;;7.93;1.13;;;1.80;99.90;;;;;;5087640;28;20036;-75
2022/01/21 00:32:15;;;;;;;23.70;3.58;;;1.80;99.90;;;;;;5068909;28;20044;-76
2022/01/21 00:34:41;;;;;;;8.90;1.80;;;1.70;99.90;;;;;;5087427;28;20097;-76
2022/01/21 00:37:06;;;;;;;11.18;2.17;;;1.80;99.90;;;;;;5086757;28;20063;-77
2022/01/21 00:39:34;;;;;;;17.08;1.92;;;1.80;99.90;;;;;;5087202;28;20488;-76
2022/01/21 00:42:10;;;;;;;23.35;4.80;;;2.00;99.90;;;;;;5086319;28;20050;-76
2022/01/21 00:44:35;;;;;;;15.30;3.63;;;2.10;99.90;;;;;;5087065;28;20036;-75
2022/01/21 00:47:02;;;;;;;13.90;2.28;;;2.10;99.90;;;;;;5086570;28;20090;-76
2022/01/21 00:49:27;;;;;;;14.88;2.25;;;2.00;99.90;;;;;;5087149;28;20036;-76
2022/01/21 00:51:53;;;;;;;18.35;3.45;;;2.10;99.90;;;;;;5086649;28;20032;-75
2022/01/21 00:54:19;;;;;;;20.90;3.63;;;2.00;99.90;;;;;;5088510;28;20132;-76
2022/01/21 00:56:44;;;;;;;15.93;2.35;;;2.00;99.90;;;;;;5089792;28;20032;-77
2022/01/21 00:59:10;;;;;;;13.95;3.40;;;2.00;99.90;;;;;;5073288;28;20559;-77
2022/01/21 01:01:36;;;;;;;20.48;3.95;;;2.00;99.90;;;;;;5072973;28;20108;-77
2022/01/21 01:04:02;;;;;;;12.10;2.30;;;2.10;99.90;;;;;;5090603;28;20081;-76
2022/01/21 01:06:27;;;;;;;27.10;4.50;;;2.10;99.90;;;;;;5090673;28;20078;-75
2022/01/21 01:08:54;;;;;;;9.60;1.65;;;2.20;99.90;;;;;;5090810;28;20048;-76
2022/01/21 01:11:46;;;;;;;15.02;2.38;;;2.10;99.90;;;;;;5089955;28;20085;-76
2022/01/21 01:22:26;;;;;;;8.15;2.60;;;2.40;99.90;;;;;;5072601;28;20428;-76
2022/01/21 01:27:50;;;;;;;9.50;2.10;;;2.50;99.90;;;;;;5066413;28;20051;-75
2022/01/21 01:30:19;;;;;;;15.88;1.92;;;2.50;99.90;;;;;;5090390;28;20040;-76
2022/01/21 01:32:47;;;;;;;11.32;3.13;;;2.40;99.90;;;;;;5090124;28;20040;-76
2022/01/21 01:35:15;;;;;;;19.77;3.47;;;2.30;99.90;;;;;;5090334;28;20054;-73
2022/01/21 01:38:02;;;;;;;13.73;2.75;;;2.20;99.90;;;;;;5090227;28;20070;-76
2022/01/21 01:40:43;;;;;;;7.30;1.40;;;2.20;99.90;;;;;;5088939;28;20048;-76
2022/01/21 01:51:17;;;;;;;25.17;4.47;;;1.90;99.90;;;;;;5071763;28;20048;-76
2022/01/21 01:54:00;;;;;;;11.52;1.52;;;1.80;99.90;;;;;;5071491;28;20086;-75
2022/01/21 01:56:29;;;;;;;6.30;1.13;;;1.70;99.90;;;;;;5088765;28;20037;-74
2022/01/21 01:58:55;;;;;;;18.23;2.78;;;1.80;99.90;;;;;;5089703;28;20047;-76
2022/01/21 02:01:21;;;;;;;19.13;2.25;;;1.80;99.90;;;;;;5089888;28;20040;-76
2022/01/21 02:03:47;;;;;;;6.40;1.77;;;1.90;99.90;;;;;;5071454;28;20055;-76
2022/01/21 02:06:13;;;;;;;13.88;2.20;;;1.90;99.90;;;;;;5088949;28;20047;-73
2022/01/21 02:08:38;;;;;;;10.00;2.53;;;1.90;99.90;;;;;;5089765;28;20070;-76
2022/01/21 02:11:04;;;;;;;14.40;3.03;;;1.90;99.90;;;;;;5070230;28;20055;-77
2022/01/21 02:13:34;;;;;;;13.77;2.50;;;1.90;99.90;;;;;;5089800;28;20437;-76
2022/01/21 02:16:31;;;;;;;17.48;2.70;;;1.90;99.90;;;;;;5071436;28;20407;-75
2022/01/21 02:21:44;;;;;;;7.22;1.13;;;2.10;99.90;;;;;;5089604;28;20502;-76
2022/01/21 02:24:21;;;;;;;9.47;1.20;;;2.00;99.90;;;;;;5089842;28;20048;-75
2022/01/21 02:26:51;;;;;;;17.23;2.53;;;2.00;99.90;;;;;;5088151;28;20427;-76
2022/01/21 02:29:27;;;;;;;12.75;1.20;;;2.10;99.90;;;;;;5089728;28;20067;-75
2022/01/21 02:31:54;;;;;;;16.10;3.10;;;2.10;99.90;;;;;;5088847;28;20510;-75
2022/01/21 02:34:19;;;;;;;27.40;3.90;;;2.00;99.90;;;;;;5089575;28;20044;-76
2022/01/21 02:36:45;;;;;;;26.45;4.28;;;1.90;99.90;;;;;;5088913;28;20504;-77
2022/01/21 02:39:10;;;;;;;16.85;3.45;;;1.90;99.90;;;;;;5089887;28;20140;-75
2022/01/21 02:41:36;;;;;;;15.02;3.05;;;1.90;99.90;;;;;;5088485;28;20498;-76
2022/01/21 02:44:02;;;;;;;19.60;2.38;;;1.90;99.90;;;;;;5088951;28;20083;-77
2022/01/21 02:46:27;;;;;;;11.45;2.50;;;1.90;99.90;;;;;;5089273;28;20044;-77
2022/01/21 02:48:53;;;;;;;13.27;4.40;;;1.90;99.90;;;;;;5089073;28;20083;-76
2022/01/21 02:51:19;;;;;;;21.63;2.85;;;2.00;99.90;;;;;;5089025;28;20482;-77
2022/01/21 02:56:12;;;;;;;20.88;3.03;;;2.00;99.90;;;;;;5088105;28;20047;-75
2022/01/21 02:58:38;;;;;;;15.20;2.25;;;2.10;99.90;;;;;;5088833;28;20083;-75
2022/01/21 03:01:05;;;;;;;17.08;2.75;;;1.90;99.90;;;;;;5070359;28;20470;-76
2022/01/21 03:03:31;;;;;;;11.23;1.90;;;1.90;99.90;;;;;;5088932;28;20048;-76
2022/01/21 03:05:57;;;;;;;8.30;2.60;;;1.90;99.90;;;;;;5088370;28;20036;-76
2022/01/21 03:08:23;;;;;;;21.45;2.75;;;1.80;99.90;;;;;;5088643;28;20480;-76
2022/01/21 03:10:48;;;;;;;23.63;3.92;;;1.80;99.90;;;;;;5087269;28;20040;-75
2022/01/21 03:13:15;;;;;;;17.30;2.63;;;1.90;99.90;;;;;;5088343;28;20047;-76
2022/01/21 03:15:41;;;;;;;14.32;2.85;;;1.80;99.90;;;;;;5088697;28;20035;-76
2022/01/21 03:18:06;;;;;;;13.82;2.67;;;1.80;99.90;;;;;;5087940;28;20052;-77
2022/01/21 03:20:32;;;;;;;20.77;3.42;;;1.80;99.90;;;;;;5070448;28;20052;-75
2022/01/21 03:23:00;;;;;;;10.80;2.58;;;1.80;99.90;;;;;;5087997;28;20043;-77
2022/01/21 03:25:26;;;;;;;8.32;1.77;;;1.80;99.90;;;;;;5087347;28;20094;-77
2022/01/21 03:27:51;;;;;;;11.82;2.45;;;1.90;99.90;;;;;;5087682;28;20048;-76
2022/01/21 03:30:17;;;;;;;13.90;3.40;;;1.80;99.90;;;;;;5088147;28;20083;-76
2022/01/21 03:32:42;;;;;;;14.48;3.15;;;1.90;99.90;;;;;;5087777;28;20036;-72
2022/01/21 03:35:08;;;;;;;19.45;2.53;;;1.80;99.90;;;;;;5088420;28;20093;-76
2022/01/21 03:37:34;;;;;;;18.50;3.00;;;1.90;99.90;;;;;;5087856;28;20519;-77
2022/01/21 03:39:59;;;;;;;11.50;2.85;;;1.90;99.90;;;;;;5068795;28;20486;-75
2022/01/21 03:42:25;;;;;;;17.42;2.67;;;1.80;99.90;;;;;;5087790;28;20048;-75
2022/01/21 03:44:50;;;;;;;25.25;3.17;;;1.80;99.90;;;;;;5087382;28;20048;-76
2022/01/21 03:47:16;;;;;;;15.75;3.28;;;1.70;99.90;;;;;;5087684;28;20043;-76
2022/01/21 03:49:52;;;;;;;19.73;3.15;;;1.80;99.90;;;;;;5069805;28;20043;-77
2022/01/21 03:52:18;;;;;;;15.80;2.33;;;1.60;99.90;;;;;;5069516;28;20097;-75
2022/01/21 03:54:43;;;;;;;11.32;2.10;;;1.60;99.90;;;;;;5087467;28;20065;-76
2022/01/21 03:57:09;;;;;;;18.60;3.70;;;1.50;99.90;;;;;;5086724;28;20040;-76
2022/01/21 03:59:34;;;;;;;20.30;3.25;;;1.70;99.90;;;;;;5069363;28;20115;-75
2022/01/21 04:02:01;;;;;;;34.72;4.18;;;1.80;99.90;;;;;;5087379;28;20383;-76
2022/01/21 04:04:26;;;;;;;15.15;3.38;;;1.80;99.90;;;;;;5069659;28;20051;-76
2022/01/21 04:06:52;;;;;;;13.32;3.83;;;1.90;99.90;;;;;;5087510;28;20036;-75
2022/01/21 04:09:18;;;;;;;20.00;3.78;;;1.90;99.90;;;;;;5087606;28;20048;-76
2022/01/21 04:11:43;;;;;;;12.00;2.97;;;2.00;99.90;;;;;;5086245;28;20051;-75
2022/01/21 04:14:09;;;;;;;14.93;2.30;;;2.00;99.90;;;;;;5087759;28;20221;-77
2022/01/21 04:16:34;;;;;;;21.40;2.17;;;2.10;99.90;;;;;;5087601;28;20044;-76
2022/01/21 04:19:00;;;;;;;23.67;4.68;;;2.10;99.90;;;;;;5087349;28;20044;-76
2022/01/21 04:21:26;;;;;;;11.82;2.78;;;1.90;99.90;;;;;;5087747;28;20036;-76
2022/01/21 04:23:51;;;;;;;14.10;2.17;;;2.00;99.90;;;;;;5087478;28;20097;-75
2022/01/21 04:26:17;;;;;;;24.80;4.13;;;2.00;99.90;;;;;;5086513;28;20050;-75
2022/01/21 04:28:42;;;;;;;21.40;4.00;;;2.10;99.90;;;;;;5087626;28;20097;-72
2022/01/21 04:31:08;;;;;;;13.75;1.83;;;2.00;99.90;;;;;;5092131;28;20128;-76
2022/01/21 04:33:33;;;;;;;9.82;2.47;;;2.10;99.90;;;;;;5092037;28;20094;-76
2022/01/21 04:35:59;;;;;;;17.17;2.78;;;2.10;99.90;;;;;;5091649;28;20409;-77
2022/01/21 04:38:26;;;;;;;20.35;2.47;;;2.10;99.90;;;;;;5092099;28;20040;-76
2022/01/21 04:41:00;;;;;;;16.50;1.60;;;2.20;99.90;;;;;;5090470;28;20122;-76
2022/01/21 04:48:54;;;;;;;17.95;3.20;;;2.10;99.90;;;;;;5091044;28;20048;-77
2022/01/21 04:51:26;;;;;;;16.20;1.67;;;2.10;99.90;;;;;;5091412;28;20561;-78
2022/01/21 04:53:52;;;;;;;11.32;2.13;;;2.00;99.90;;;;;;5091065;28;20047;-77
2022/01/21 04:56:17;;;;;;;15.93;3.33;;;2.00;99.90;;;;;;5072306;28;20044;-77
2022/01/21 04:58:45;;;;;;;16.90;2.38;;;1.80;99.90;;;;;;5091181;28;20255;-77
2022/01/21 05:01:11;;;;;;;8.63;1.77;;;1.90;99.90;;;;;;5092167;28;20111;-76
2022/01/21 05:03:39;;;;;;;10.55;2.28;;;1.90;99.90;;;;;;5091692;28;20044;-77
2022/01/21 05:06:05;;;;;;;6.40;1.05;;;1.90;99.90;;;;;;5090731;28;20725;-77
2022/01/21 05:08:51;;;;;;;16.60;2.88;;;2.00;99.90;;;;;;5090783;28;20502;-76
2022/01/21 05:11:17;;;;;;;9.23;1.92;;;2.00;99.90;;;;;;5089742;28;20040;-76
2022/01/21 05:13:53;;;;;;;14.05;2.47;;;2.00;99.90;;;;;;5090559;28;20058;-75
2022/01/21 05:16:37;;;;;;;14.65;2.65;;;2.00;99.90;;;;;;5090766;28;21106;-77
2022/01/21 05:19:12;;;;;;;18.25;3.53;;;2.00;99.90;;;;;;5072908;28;20052;-76
2022/01/21 05:21:38;;;;;;;14.48;1.55;;;2.00;99.90;;;;;;5091177;28;20052;-77
2022/01/21 05:24:04;;;;;;;8.43;1.92;;;2.10;99.90;;;;;;5090375;28;20124;-77
2022/01/21 05:26:36;;;;;;;11.95;2.67;;;2.10;99.90;;;;;;5089498;28;20036;-77
2022/01/21 05:29:06;;;;;;;14.07;2.28;;;2.10;99.90;;;;;;5090285;28;20616;-77
2022/01/21 05:31:32;;;;;;;;;;;2.10;99.90;;;;;;5090717;28;20036;-76
2022/01/21 05:33:58;;;;;;;11.13;1.70;;;2.20;99.90;;;;;;5072238;28;19969;-77
2022/01/21 05:36:24;;;;;;;25.60;3.35;;;2.20;99.90;;;;;;5090217;28;20048;-76
2022/01/21 05:38:50;;;;;;;27.13;3.95;;;2.20;99.90;;;;;;5090179;28;20048;-77
2022/01/21 05:41:18;;;;;;;12.05;1.80;;;2.10;99.90;;;;;;5071094;28;20059;-76
2022/01/21 05:43:46;;;;;;;10.63;2.70;;;2.20;99.90;;;;;;5089665;28;20133;-75
2022/01/21 05:46:26;;;;;;;16.92;2.10;;;2.10;99.90;;;;;;5090173;28;20052;-77
2022/01/21 05:48:52;;;;;;;12.40;1.55;;;2.10;99.90;;;;;;5089871;28;20241;-76
2022/01/21 05:51:19;;;;;;;11.85;3.15;;;2.00;99.90;;;;;;5090239;28;20044;-76
2022/01/21 05:53:45;;;;;;;18.95;3.63;;;2.00;99.90;;;;;;5089738;28;20056;-76
2022/01/21 05:56:12;;;;;;;14.45;1.88;;;2.10;99.90;;;;;;5070920;28;20055;-75
2022/01/21 05:58:37;;;;;;;17.70;2.53;;;2.10;99.90;;;;;;5071799;28;20044;-76
2022/01/21 06:01:03;;;;;;;9.25;1.48;;;2.20;99.90;;;;;;5071572;28;20306;-75
2022/01/21 06:03:31;;;;;;;15.50;3.90;;;2.20;99.90;;;;;;5054897;28;20040;-76
2022/01/21 06:05:57;;;;;;;18.77;2.20;;;2.30;99.90;;;;;;5071250;28;20032;-75
2022/01/21 06:08:22;;;;;;;8.18;1.08;;;2.40;99.90;;;;;;5071616;28;20127;-76
2022/01/21 06:10:48;;;;;;;13.30;1.98;;;2.30;99.90;;;;;;5088139;28;20032;-75
2022/01/21 06:13:16;;;;;;;9.43;2.17;;;2.40;99.90;;;;;;5089504;28;20375;-75
2022/01/21 06:15:43;;;;;;;14.32;3.72;;;2.50;99.90;;;;;;5089768;28;20113;-74
2022/01/21 06:18:08;;;;;;;9.43;2.38;;;2.50;99.90;;;;;;5089612;28;20035;-75
2022/01/21 06:20:34;;;;;;;18.20;3.83;;;2.60;99.90;;;;;;5071629;28;20048;-73
2022/01/21 06:22:59;;;;;;;14.32;1.73;;;2.70;99.90;;;;;;5088994;28;20044;-74
2022/01/21 06:25:25;;;;;;;15.85;2.22;;;2.60;99.90;;;;;;5087972;28;20097;-74
2022/01/21 06:27:51;;;;;;;13.43;3.70;;;2.60;99.90;;;;;;5070873;28;20054;-75
2022/01/21 06:30:16;;;;;;;8.65;2.42;;;2.60;99.90;;;;;;5070996;28;20044;-74
2022/01/21 06:32:42;;;;;;;8.05;1.63;;;2.50;99.90;;;;;;5089298;28;20040;-75
2022/01/21 06:35:09;;;;;;;8.88;2.58;;;2.60;99.90;;;;;;5071589;28;20414;-76
2022/01/21 06:37:35;;;;;;;7.10;1.42;;;2.40;99.90;;;;;;5088750;28;20509;-74
2022/01/21 06:40:01;;;;;;;12.73;2.67;;;2.40;99.90;;;;;;5069666;28;20051;-74
2022/01/21 06:42:28;;;;;;;5.28;1.92;;;2.50;99.90;;;;;;5070663;28;20043;-75
2022/01/21 06:44:54;;;;;;;16.45;3.28;;;2.30;99.90;;;;;;5088484;28;20397;-75
2022/01/21 06:47:20;;;;;;;17.00;2.22;;;2.30;99.90;;;;;;5088739;28;20139;-76
2022/01/21 06:49:46;;;;;;;12.77;2.50;;;2.30;99.90;;;;;;5088543;28;20040;-75
2022/01/21 06:52:12;;;;;;;19.45;2.47;;;2.30;99.90;;;;;;5088182;28;20048;-74
2022/01/21 06:54:38;;;;;;;14.77;2.17;;;2.20;99.90;;;;;;5069770;28;20048;-76
2022/01/21 06:57:04;;;;;;;10.98;2.28;;;2.30;99.90;;;;;;5070045;28;20043;-75
2022/01/21 06:59:30;;;;;;;7.63;2.45;;;2.20;99.90;;;;;;5070399;28;20048;-76
2022/01/21 07:01:55;;;;;;;14.50;2.75;;;2.30;99.90;;;;;;5070130;28;20044;-76
2022/01/21 07:04:21;;;;;;;13.23;2.33;;;2.30;99.90;;;;;;5088608;28;20445;-76
2022/01/21 07:06:46;;;;;;;11.18;2.30;;;2.50;99.90;;;;;;5088259;28;20040;-76
2022/01/21 07:09:12;;;;;;;23.50;5.65;;;2.60;99.90;;;;;;5070418;28;20039;-75
2022/01/21 07:11:38;;;;;;;8.60;1.88;;;2.70;99.90;;;;;;5069427;28;20051;-75
2022/01/21 07:14:04;;;;;;;11.80;2.13;;;2.70;99.90;;;;;;5069708;28;20051;-76
2022/01/21 07:16:30;;;;;;;17.33;3.55;;;2.70;99.90;;;;;;5088354;28;20040;-75
2022/01/21 07:18:55;;;;;;;13.48;2.72;;;2.80;99.90;;;;;;5087929;28;20105;-76
2022/01/21 07:21:21;;;;;;;11.55;3.00;;;2.70;99.90;;;;;;5069837;28;20200;-75
2022/01/21 07:23:46;;;;;;;22.38;3.92;;;2.70;99.90;;;;;;5087864;28;20043;-75
2022/01/21 07:26:14;;;;;;;12.07;3.95;;;2.70;99.90;;;;;;5069148;28;20461;-72
2022/01/21 07:28:40;;;;;;;29.00;4.20;;;2.70;99.90;;;;;;5088201;28;20134;-74
2022/01/21 07:31:06;;;;;;;18.85;4.07;;;2.70;99.90;;;;;;5069653;28;20044;-75
2022/01/21 07:33:31;;;;;;;17.77;4.47;;;2.70;99.90;;;;;;5088028;28;20032;-75
2022/01/21 07:35:57;;;;;;;20.58;2.90;;;2.70;99.90;;;;;;5087862;28;20036;-75
2022/01/21 07:38:23;;;;;;;20.63;3.00;;;2.60;99.90;;;;;;5069608;28;20294;-75
2022/01/21 07:40:49;;;;;;;26.45;3.33;;;2.50;99.90;;;;;;5068777;28;20392;-75
2022/01/21 07:43:14;;;;;;;24.52;2.42;;;2.50;99.90;;;;;;5087462;28;20048;-75
2022/01/21 07:45:40;;;;;;;14.57;2.17;;;2.50;99.90;;;;;;5087602;28;20050;-75
2022/01/21 07:48:07;;;;;;;12.80;2.55;;;2.40;99.90;;;;;;5069345;28;20052;-76
2022/01/21 07:50:34;;;;;;;13.18;2.17;;;2.40;99.90;;;;;;5087532;28;20426;-77
2022/01/21 07:53:00;;;;;;;14.77;4.00;;;2.50;99.90;;;;;;5069198;28;20514;-77
2022/01/21 07:55:26;;;;;;;15.02;2.60;;;2.40;99.90;;;;;;5086571;28;20052;-77
2022/01/21 07:57:51;;;;;;;22.75;3.92;;;2.40;99.90;;;;;;5086807;28;20089;-76
2022/01/21 08:00:18;;;;;;;16.80;3.65;;;2.40;99.90;;;;;;5087396;28;20059;-76
2022/01/21 08:02:44;;;;;;;17.73;4.28;;;2.40;99.90;;;;;;5086619;28;20040;-77
2022/01/21 08:05:10;;;;;;;21.52;2.95;;;2.50;99.90;;;;;;5086890;28;20329;-75
2022/01/21 08:07:35;;;;;;;15.60;2.45;;;2.40;99.90;;;;;;5069346;28;20425;-76
2022/01/21 08:10:01;;;;;;;18.45;2.67;;;2.40;99.90;;;;;;5085743;28;20036;-76
2022/01/21 08:12:27;;;;;;;21.48;4.07;;;2.30;99.90;;;;;;5069097;28;20115;-76
2022/01/21 08:14:53;;;;;;;16.48;3.55;;;2.20;99.90;;;;;;5087045;28;20079;-75
2022/01/21 08:17:18;;;;;;;24.00;4.05;;;2.20;99.90;;;;;;5069000;28;20052;-75
2022/01/21 08:19:44;;;;;;;15.48;4.60;;;2.20;99.90;;;;;;5086724;28;20581;-76
2022/01/21 08:22:10;;;;;;;22.63;5.47;;;2.30;99.90;;;;;;5087362;28;20040;-77
2022/01/21 08:24:35;;;;;;;21.75;4.90;;;2.20;99.90;;;;;;5068288;28;20090;-76
2022/01/21 08:27:01;;;;;;;15.68;4.22;;;2.20;99.90;;;;;;5087004;28;20497;-75
2022/01/21 08:29:27;;;;;;;16.23;3.03;;;2.30;99.90;;;;;;5087106;28;20047;-75
2022/01/21 08:31:54;;;;;;;9.55;3.55;;;2.30;99.90;;;;;;5086686;28;20043;-75
2022/01/21 08:34:20;;;;;;;22.77;3.78;;;2.30;99.90;;;;;;5086877;28;20413;-75
2022/01/21 08:36:46;;;;;;;16.08;4.00;;;2.40;99.90;;;;;;5086397;28;20044;-78
2022/01/21 08:39:13;;;;;;;24.25;3.47;;;2.50;99.90;;;;;;5086584;28;20048;-75
2022/01/21 08:41:39;;;;;;;17.85;5.88;;;2.60;99.90;;;;;;5068856;28;20119;-76
2022/01/21 08:44:04;;;;;;;25.00;4.32;;;2.80;99.90;;;;;;5086745;28;20131;-78
2022/01/21 08:46:30;;;;;;;31.27;5.35;;;2.80;99.90;;;;;;5068244;28;20048;-76
2022/01/21 08:48:56;;;;;;;20.50;3.30;;;2.90;99.90;;;;;;5086403;28;20048;-75
2022/01/21 08:51:26;;;;;;;23.33;5.97;;;3.00;99.90;;;;;;5086840;28;20055;-76
2022/01/21 08:53:53;;;;;;;17.67;3.40;;;3.20;99.90;;;;;;5086815;28;20044;-77
2022/01/21 08:56:20;;;;;;;27.48;3.35;;;3.20;99.90;;;;;;5085992;28;20040;-77
2022/01/21 08:58:47;;;;;;;12.07;3.35;;;3.40;99.90;;;;;;5086419;28;20040;-75
2022/01/21 09:01:13;;;;;;;23.13;3.83;;;3.50;99.90;;;;;;5068559;28;20055;-74
2022/01/21 09:03:40;;;;;;;13.20;3.63;;;3.80;99.90;;;;;;5086979;28;20048;-77
2022/01/21 09:06:07;;;;;;;13.93;2.08;;;3.80;99.90;;;;;;5051854;28;20127;-77
2022/01/21 09:08:33;;;;;;;18.35;5.25;;;3.90;99.90;;;;;;5086542;28;20567;-76
2022/01/21 09:11:02;;;;;;;11.95;2.05;;;3.90;99.90;;;;;;5085451;28;20044;-79
2022/01/21 09:13:30;;;;;;;18.70;2.97;;;3.90;99.90;;;;;;5068801;28;20048;-76
2022/01/21 09:15:59;;;;;;;11.38;2.17;;;4.00;99.90;;;;;;5088631;28;20145;-76
2022/01/21 09:18:33;;;;;;;16.63;3.13;;;4.00;99.90;;;;;;5072388;28;20051;-75
2022/01/21 09:21:00;;;;;;;14.55;2.30;;;4.10;99.90;;;;;;5071618;28;20040;-75
2022/01/21 09:23:25;;;;;;;15.70;2.15;;;4.10;99.90;;;;;;5090199;28;20117;-75
2022/01/21 09:25:51;;;;;;;8.07;1.67;;;4.10;99.90;;;;;;5070949;28;20473;-75
2022/01/21 09:28:17;;;;;;;8.77;1.73;;;4.10;99.90;;;;;;5090245;28;20241;-76
2022/01/21 09:30:43;;;;;;;9.70;2.08;;;4.10;99.90;;;;;;5071396;28;20086;-75
2022/01/21 09:33:09;;;;;;;9.40;3.45;;;4.20;99.90;;;;;;5072568;28;20501;-75
2022/01/21 09:35:35;;;;;;;15.10;3.67;;;4.10;99.90;;;;;;5090212;28;20040;-76
2022/01/21 09:38:00;;;;;;;28.42;3.67;;;4.20;99.90;;;;;;5089463;28;20127;-76
2022/01/21 09:40:31;;;;;;;20.05;3.95;;;4.20;99.90;;;;;;5089126;28;20075;-76
2022/01/21 09:42:58;;;;;;;11.00;2.75;;;4.30;99.90;;;;;;5089663;28;20139;-76
2022/01/21 09:45:24;;;;;;;21.98;2.90;;;4.30;99.90;;;;;;5089490;28;20052;-77
2022/01/21 09:47:54;;;;;;;41.47;5.00;;;4.20;99.90;;;;;;5089334;28;20084;-77
2022/01/21 09:50:21;;;;;;;47.93;4.60;;;4.30;99.90;;;;;;5089834;28;20486;-78
2022/01/21 09:52:52;;;;;;;32.22;4.78;;;4.20;99.90;;;;;;5071399;28;20648;-77
2022/01/21 09:55:21;;;;;;;29.25;4.80;;;4.30;99.90;;;;;;5070585;28;20478;-78
2022/01/21 09:57:49;;;;;;;36.90;3.90;;;4.30;99.90;;;;;;5071013;28;20460;-78
2022/01/21 10:00:16;;;;;;;24.75;4.47;;;4.30;99.90;;;;;;5054518;28;20093;-77
2022/01/21 10:02:43;;;;;;;28.50;6.78;;;4.30;99.90;;;;;;5071680;28;20050;-77
2022/01/21 10:05:09;;;;;;;24.95;3.78;;;4.50;99.90;;;;;;5071654;28;20217;-77
2022/01/21 10:07:38;;;;;;;23.55;4.43;;;4.50;99.90;;;;;;5071574;28;20032;-77
2022/01/21 10:10:08;;;;;;;17.83;3.55;;;4.60;99.90;;;;;;5070227;28;20447;-76
2022/01/21 10:12:39;;;;;;;34.13;6.20;;;4.60;99.90;;;;;;5071114;28;20048;-76
2022/01/21 10:15:07;;;;;;;20.02;5.47;;;4.60;99.90;;;;;;5088830;28;20038;-76
2022/01/21 10:17:33;;;;;;;26.45;6.15;;;4.60;99.90;;;;;;5089196;28;20048;-78
2022/01/21 10:20:21;;;;;;;38.33;6.70;;;4.50;99.90;;;;;;5088758;28;20067;-76
2022/01/21 10:22:58;;;;;;;28.75;5.88;;;4.50;99.90;;;;;;5070926;28;20044;-76
2022/01/21 10:25:24;;;;;;;26.35;4.78;;;4.60;99.90;;;;;;5088181;28;20036;-76
2022/01/21 10:27:50;;;;;;;45.70;6.38;;;4.70;99.90;;;;;;5087738;28;20329;-79
2022/01/21 10:30:25;;;;;;;19.48;3.80;;;4.80;99.90;;;;;;5089095;28;20040;-76
2022/01/21 10:32:52;;;;;;;24.05;5.00;;;4.90;99.90;;;;;;5088668;28;20044;-78
2022/01/21 10:35:26;;;;;;;18.40;4.60;;;5.20;99.90;;;;;;5089087;28;20344;-77
2022/01/21 10:37:55;;;;;;;22.85;4.20;;;5.40;99.90;;;;;;5088407;28;20054;-78
2022/01/21 10:40:21;;;;;;;34.90;4.70;;;5.50;99.90;;;;;;5053218;28;20115;-78
2022/01/21 10:42:48;;;;;;;20.77;5.05;;;5.60;99.90;;;;;;5088323;28;20123;-76
2022/01/21 10:45:13;;;;;;;21.80;3.20;;;5.70;99.90;;;;;;5088642;28;20097;-77
2022/01/21 10:47:46;;;;;;;15.50;4.00;;;5.80;99.90;;;;;;5070586;28;20482;-76
2022/01/21 10:50:14;;;;;;;15.48;3.45;;;5.80;99.90;;;;;;5089081;28;20055;-76
2022/01/21 10:52:50;;;;;;;20.20;3.17;;;5.90;99.90;;;;;;5088617;28;20520;-76
2022/01/21 10:55:38;;;;;;;32.17;3.85;;;6.00;99.90;;;;;;5087549;28;20055;-76
2022/01/21 10:58:08;;;;;;;16.70;2.88;;;6.10;99.90;;;;;;5087814;28;20051;-76
2022/01/21 11:00:34;;;;;;;33.05;4.80;;;6.00;99.90;;;;;;5069942;28;20051;-76
2022/01/21 11:03:14;;;;;;;12.18;2.55;;;6.00;99.90;;;;;;5087944;28;20495;-76
2022/01/21 11:05:44;;;;;;;20.55;3.25;;;6.10;99.90;;;;;;5088552;28;20196;-77
2022/01/21 11:08:11;;;;;;;;;;;6.10;99.90;;;;;;5088833;28;20109;-77
2022/01/21 11:10:46;;;;;;;20.85;4.45;;;6.10;99.90;;;;;;5087180;28;19920;-77
2022/01/21 11:13:11;;;;;;;21.70;3.80;;;6.20;99.90;;;;;;5088397;28;20044;-77
2022/01/21 11:16:10;;;;;;;23.33;4.50;;;6.30;99.90;;;;;;5069700;28;20048;-77
2022/01/21 11:18:52;;;;;;;27.10;3.58;;;6.30;99.90;;;;;;5087920;28;20410;-77
2022/01/21 11:21:17;;;;;;;23.17;3.92;;;6.30;99.90;;;;;;5087893;28;20044;-77
2022/01/21 11:23:43;;;;;;;8.63;1.48;;;6.30;99.90;;;;;;5068853;28;20600;-78
2022/01/21 11:26:09;;;;;;;16.45;2.55;;;6.30;99.90;;;;;;5088212;28;20032;-77
2022/01/21 11:28:39;;;;;;;22.00;3.22;;;6.40;99.90;;;;;;5087991;28;20048;-76
2022/01/21 11:31:06;;;;;;;13.23;2.97;;;6.50;99.90;;;;;;5087588;28;20123;-77
2022/01/21 11:33:31;;;;;;;20.58;2.58;;;6.60;99.90;;;;;;5087758;28;20083;-76
2022/01/21 11:35:57;;;;;;;18.35;4.40;;;6.70;99.90;;;;;;5069466;28;20143;-77
2022/01/21 11:38:25;;;;;;;20.10;4.82;;;6.70;99.90;;;;;;5069321;28;20094;-76
2022/01/21 11:40:52;;;;;;;18.52;3.05;;;6.70;99.90;;;;;;5068325;28;20118;-75
2022/01/21 11:43:18;;;;;;;9.65;1.63;;;6.60;99.90;;;;;;5069602;28;20089;-76
2022/01/21 11:46:16;;;;;;;17.08;3.08;;;6.70;99.90;;;;;;5069083;28;20047;-76
2022/01/21 11:48:51;;;;;;;15.32;2.72;;;6.60;99.90;;;;;;5087617;28;20079;-77
2022/01/21 11:51:26;;;;;;;11.27;1.90;;;6.60;99.90;;;;;;5069706;28;20433;-76
2022/01/21 11:53:57;;;;;;;15.43;3.15;;;6.60;99.90;;;;;;5086460;28;20174;-78
2022/01/21 11:56:34;;;;;;;9.90;1.95;;;6.60;99.90;;;;;;5069538;28;20051;-77
2022/01/21 11:59:08;;;;;;;16.02;2.67;;;6.60;99.90;;;;;;5069202;28;20196;-76
2022/01/21 12:01:48;;;;;;;19.52;3.58;;;6.60;99.90;;;;;;5087419;28;20079;-76
2022/01/21 12:04:29;;;;;;;16.52;3.33;;;6.60;99.90;;;;;;5069528;28;20406;-76
2022/01/21 12:06:58;;;;;;;15.10;1.85;;;6.60;99.90;;;;;;5068894;28;20047;-75
2022/01/21 12:09:56;;;;;;;10.75;2.40;;;6.50;99.90;;;;;;5086419;28;20036;-75
2022/01/21 12:12:49;;;;;;;18.77;3.40;;;6.50;99.90;;;;;;5060265;28;20196;-75
2022/01/21 12:16:07;;;;;;;10.75;2.67;;;6.50;99.90;;;;;;5068905;28;20098;-75
2022/01/21 12:18:39;;;;;;;21.05;3.30;;;6.60;99.90;;;;;;5069193;28;20094;-75
2022/01/21 12:21:31;;;;;;;17.02;3.95;;;6.70;99.90;;;;;;5086802;28;20696;-75
2022/01/21 12:23:59;;;;;;;16.35;2.40;;;6.80;99.90;;;;;;5068105;28;20052;-76
2022/01/21 12:26:26;;;;;;;23.23;4.28;;;6.80;99.90;;;;;;5087078;28;20047;-76
2022/01/21 12:28:52;;;;;;;17.85;2.85;;;6.90;99.90;;;;;;5086735;28;20040;-77
2022/01/21 12:31:19;;;;;;;22.92;3.40;;;6.80;99.90;;;;;;5087125;28;20502;-75
2022/01/21 12:36:18;;;;;;;21.55;4.30;;;6.80;99.90;;;;;;5086967;28;20102;-76
2022/01/21 12:41:15;;;;;;;26.73;4.85;;;6.70;99.90;;;;;;5069081;28;20509;-75
2022/01/21 12:43:46;;;;;;;24.38;2.97;;;6.70;99.90;;;;;;5068910;28;20082;-76
2022/01/21 12:46:22;;;;;;;19.20;3.97;;;6.70;99.90;;;;;;5068978;28;20067;-75
2022/01/21 12:48:50;;;;;;;37.05;6.63;;;6.70;99.90;;;;;;5068799;28;20391;-77
2022/01/21 12:51:32;;;;;;;38.70;3.83;;;6.70;99.90;;;;;;5090040;28;20097;-75
2022/01/21 12:56:50;;;;;;;15.40;3.30;;;6.70;99.90;;;;;;5090578;28;20040;-78
2022/01/21 12:59:20;;;;;;;18.50;3.05;;;6.60;99.90;;;;;;5072732;28;20036;-76
2022/01/21 13:01:46;;;;;;;22.30;3.92;;;6.60;99.90;;;;;;5090273;28;20478;-77
2022/01/21 13:04:49;;;;;;;9.75;3.30;;;6.60;99.90;;;;;;5091224;28;20048;-77
2022/01/21 13:07:24;;;;;;;12.88;2.67;;;6.60;99.90;;;;;;5072646;28;20119;-77
2022/01/21 13:10:06;;;;;;;22.38;5.32;;;6.70;99.90;;;;;;5089441;28;20036;-75
2022/01/21 13:13:00;;;;;;;18.02;2.78;;;6.70;99.90;;;;;;5072297;28;20052;-76
2022/01/21 13:15:55;;;;;;;19.83;3.40;;;6.70;99.90;;;;;;5090503;28;20040;-77
2022/01/21 13:18:28;;;;;;;27.58;4.78;;;6.70;99.90;;;;;;5090130;28;20048;-76
2022/01/21 13:20:57;;;;;;;12.45;2.33;;;6.70;99.90;;;;;;5071903;28;20082;-76
2022/01/21 13:23:59;;;;;;;13.90;2.42;;;6.70;99.90;;;;;;5071611;28;20032;-77
2022/01/21 13:26:27;;;;;;;26.48;4.93;;;6.70;99.90;;;;;;5072254;28;20154;-77
2022/01/21 13:29:02;;;;;;;12.73;2.70;;;6.70;99.90;;;;;;5090097;28;20153;-77
2022/01/21 13:31:31;;;;;;;15.10;3.67;;;6.70;99.90;;;;;;5072509;28;20088;-78
2022/01/21 13:34:10;;;;;;;26.83;3.40;;;6.70;99.90;;;;;;5072002;28;20044;-78
2022/01/21 13:36:41;;;;;;;24.02;4.00;;;6.80;99.90;;;;;;5089943;28;20051;-74
2022/01/21 13:39:17;;;;;;;18.98;4.38;;;6.80;99.90;;;;;;5089152;28;20079;-78
2022/01/21 13:42:01;;;;;;;23.55;5.50;;;6.80;99.90;;;;;;5071490;28;20044;-77
2022/01/21 13:44:33;;;;;;;20.55;4.28;;;6.80;99.90;;;;;;5089991;28;20438;-78
2022/01/21 13:47:00;;;;;;;18.77;2.92;;;6.70;99.90;;;;;;5089275;28;20349;-77